Buoy 42514

sailwx.info

Track history (hours):
 
Tides and Currents Weather Stations Pressure Air Temp Water Temp Dewpoint Dewpoint Depression Visibility Wind Speed Wind Dir Waves Ship Positions

Drifting buoy 42514

Last reported at 2016-Feb-09 20:10 UTC. Time now 2016-Feb-10 00:38 UTC.
Position N 28°31' W 087°30'.

Barometer 1022.2 mb
Water temperature 20.5 ° C

Date/timePositionNaut miles runAvg speedWind from/ knotsBaromVisibWave heightAir tempDewpointWater temp
2016-Feb-09 20:10N 28°31' W 087°30'4 1.0 1022.2 20.5
2016-Feb-09 16:10N 28°31' W 087°35'1 0.8 1026.3 20.6
2016-Feb-09 15:10N 28°32' W 087°36'1 0.7 1025.5 20.6
2016-Feb-09 14:10N 28°32' W 087°36'2 2.0 1023.6 20.6
2016-Feb-09 13:10N 28°33' W 087°38'3 1.0 1023.2 20.7
2016-Feb-09 10:10N 28°35' W 087°40'0 0.0 1019.2 20.7
2016-Feb-09 08:10N 28°35' W 087°40'7 1.4 1019.3 20.9
2016-Feb-09 03:10N 28°41' W 087°45'3 2.6 1017.9 20.7
2016-Feb-09 02:10N 28°43' W 087°47'3 1.7 1017.2 20.6
2016-Feb-09 00:10N 28°44' W 087°51'0 0.1 1015.8 20.7
2016-Feb-08 23:10N 28°44' W 087°51'2 2.3 1014.9 20.7
2016-Feb-08 22:10N 28°45' W 087°53'1 1.3 1015.4 20.7
2016-Feb-08 21:10N 28°44' W 087°55'5 1.0 1014.6 20.6
2016-Feb-08 16:10N 28°45' W 088°00'1 0.4 1020.1 20.6
2016-Feb-08 14:10N 28°45' W 088°01'2 2.3 1020.6 20.7
2016-Feb-08 13:10N 28°46' W 088°04'1 0.7 1020.1 20.7
2016-Feb-08 12:10N 28°46' W 088°04'0 0.0 1020.1 20.7
2016-Feb-08 11:10N 28°46' W 088°04'1 1.0 1019.7 20.7
2016-Feb-08 10:10N 28°46' W 088°05'1 1.5 1019.9 20.6
2016-Feb-08 09:10N 28°47' W 088°07'4 0.9 1019.9 20.4
2016-Feb-08 04:10N 28°49' W 088°11'1 0.6 1022.1 20.7
2016-Feb-08 03:10N 28°49' W 088°12'1 1.5 1022.1 20.7
2016-Feb-08 02:10N 28°49' W 088°14'1 1.2 1022.2 20.1
2016-Feb-08 01:10N 28°49' W 088°15'1 0.8 1021.7 20.4
2016-Feb-08 00:10N 28°49' W 088°16'1 1.2 1021.3 20.3
2016-Feb-07 23:10N 28°49' W 088°17'0 0.0 1021.0 20.3
2016-Feb-07 22:10N 28°49' W 088°17'0 0.1 1021.2 20.4
2016-Feb-07 20:10N 28°49' W 088°17'0 0.4 1022.1 20.3
2016-Feb-07 19:10N 28°49' W 088°17'0 0.0 1023.0 20.1
2016-Feb-07 18:10N 28°49' W 088°17'2 0.7 1023.9 20.1
2016-Feb-07 15:10N 28°51' W 088°17'2 0.7 1025.7 20.1
2016-Feb-07 12:10N 28°53' W 088°16'1 0.7 1024.5 20.4
2016-Feb-07 11:10N 28°54' W 088°16'1 1.3 1023.3 20.2
2016-Feb-07 10:10N 28°55' W 088°15'3 1.2 1023.1 20.2
2016-Feb-07 07:10N 28°58' W 088°14'2 2.4 1023.4 20.3
2016-Feb-07 06:10N 28°56' W 088°15'4 0.9 1023.8 20.2
2016-Feb-07 02:10N 28°60' W 088°14'3 1.0 1024.5 20.1
2016-Feb-06 23:10N 29°02' W 088°15'0 0.0 1023.4 20.0
2016-Feb-06 22:10N 29°02' W 088°15'1 0.7 1023.6 19.9
2016-Feb-06 21:10N 29°03' W 088°15'0 0.0 1023.8 19.6
2016-Feb-06 20:10N 29°03' W 088°15'1 0.5 1024.2 19.7
2016-Feb-06 18:10N 29°04' W 088°16'0 0.3 1025.5 19.4
2016-Feb-06 17:10N 29°03' W 088°16'0 0.2 1026.4 19.6
2016-Feb-06 15:10N 29°04' W 088°16'1 0.3 1027.1 19.9
2016-Feb-06 12:10N 29°04' W 088°15'1 1.1 1026.6 20.5
2016-Feb-06 11:10N 29°05' W 088°14'1 0.7 1026.2 20.4
2016-Feb-06 09:10N 29°05' W 088°13'1 1.4 1026.8 20.4
2016-Feb-06 08:10N 29°06' W 088°11'0 0.1 1027.0 20.4
2016-Feb-06 07:10N 29°07' W 088°12'5 1.2 1027.1 20.1
2016-Feb-06 03:10N 29°11' W 088°09'4 1.2 1027.3 19.4
2016-Feb-06 00:10N 29°14' W 088°08'0 0.0 1028.4 19.3
2016-Feb-05 23:10N 29°14' W 088°08'0 0.0 1028.8 19.1
2016-Feb-05 22:10N 29°14' W 088°08'1 0.6 1028.9 18.7
2016-Feb-05 20:10N 29°15' W 088°08'4 0.9 1029.0 18.2
2016-Feb-05 15:10N 29°18' W 088°05'7 1.2 1031.7 17.6
2016-Feb-05 09:10N 29°24' W 087°59'3 2.5 1028.7 17.3
2016-Feb-05 08:10N 29°26' W 087°57'6 1.2 1028.9 17.8
2016-Feb-05 03:10N 29°32' W 087°55'6 1.9 1027.8 18.3
2016-Feb-05 00:10N 29°37' W 087°56'0 0.0 1025.5 18.3
2016-Feb-04 23:10N 29°37' W 087°56'4 1.3 1024.3 17.6
2016-Feb-04 20:10N 29°41' W 087°57'0 0.0 1022.3 16.5
2016-Feb-04 19:10N 29°41' W 087°57'4 1.2 1022.7 16.5
2016-Feb-04 16:10N 29°44' W 087°56'1 1.2 1024.5 16.1
2016-Feb-04 15:10N 29°46' W 087°55'2 1.6 1023.9 16.1
2016-Feb-04 14:10N 29°47' W 087°55'3 2.6 1023.5 16.1
2016-Feb-04 13:10N 29°49' W 087°53'1 1.0 1022.5 16.1
2016-Feb-04 12:10N 29°50' W 087°53'17 1.2 1021.8 16.1
2016-Feb-03 21:10N 30°05' W 087°43'0 0.0 1014.9 16.5
2016-Feb-03 20:10N 30°05' W 087°43'7 1.1 1015.1 16.5
2016-Feb-03 14:10N 30°12' W 087°40'2 1.2 1013.1 17.2
2016-Feb-03 12:10N 30°14' W 087°39'1 0.5 1011.7 16.6
2016-Feb-03 11:10N 30°14' W 087°39'3 0.9 1011.0 17.1
2016-Feb-03 08:10N 30°12' W 087°38'0 0.0 1010.9 16.8
2016-Feb-03 07:10N 30°12' W 087°38'9 1.0 1011.2 16.4
2016-Feb-02 22:10N 30°04' W 087°32'7 1.1 1012.0 17.1
2016-Feb-02 15:10N 29°57' W 087°28'2 0.9 1014.7 17.6
2016-Feb-02 13:10N 29°56' W 087°27'2 2.0 1013.3 17.6
2016-Feb-02 12:10N 29°54' W 087°26'1 1.4 1012.9 17.4
2016-Feb-02 11:10N 29°53' W 087°25'3 1.4 1012.4 17.5
2016-Feb-02 09:10N 29°50' W 087°24'5 0.9 1012.5 18.3
2016-Feb-02 04:10N 29°47' W 087°20'0 0.0 1014.1 19.6
2016-Feb-02 03:10N 29°47' W 087°20'7 0.6 1013.9 20.0
2016-Feb-01 15:10N 29°48' W 087°13'1 0.4 1016.9 17.7
2016-Feb-01 11:10N 29°48' W 087°11'4 1.2 1015.0 16.7
2016-Feb-01 08:10N 29°46' W 087°07'0 0.0 1015.0 16.8
2016-Feb-01 07:10N 29°46' W 087°07'0 0.5 1015.2 16.7
2016-Feb-01 06:10N 29°46' W 087°07'4 1.2 1015.6 16.8
2016-Feb-01 03:10N 29°42' W 087°07'1 0.7 1015.8 16.8
2016-Feb-01 02:10N 29°41' W 087°07'3 3.2 1016.1 17.2
2016-Feb-01 01:10N 29°39' W 087°09'3 0.6 1016.0 17.2
2016-Jan-31 20:10N 29°36' W 087°11'2 1.0 1016.1 18.0
2016-Jan-31 18:10N 29°35' W 087°12'2 1.9 1017.1 18.4
2016-Jan-31 17:10N 29°33' W 087°13'1 1.1 1018.2 18.0
2016-Jan-31 16:10N 29°32' W 087°13'2 0.9 1018.6 18.0
2016-Jan-31 14:10N 29°30' W 087°14'3 1.3 1018.0 18.0
2016-Jan-31 12:10N 29°28' W 087°15'1 1.3 1017.3 20.2
2016-Jan-31 11:10N 29°27' W 087°15'1 1.1 1016.8 21.2
2016-Jan-31 10:10N 29°25' W 087°15'4 2.0 1016.9 21.4
2016-Jan-31 08:10N 29°21' W 087°15'5 1.1 1017.5 21.4
2016-Jan-31 03:10N 29°16' W 087°15'4 1.2 1019.5 21.4
2016-Jan-31 00:10N 29°12' W 087°14'3 2.6 1019.2 21.4
2016-Jan-30 23:10N 29°10' W 087°13'0 0.0 1019.2 21.4
2016-Jan-30 22:10N 29°10' W 087°13'2 1.0 1019.1 21.4
2016-Jan-30 20:10N 29°08' W 087°12'   1019.8 21.4
Track history (hours):
 
Tides and Currents Weather Stations Pressure Air Temp Water Temp Dewpoint Dewpoint Depression Visibility Wind Speed Wind Dir Waves Ship Positions

Drifting buoy 42514

Last reported at 2016-Feb-09 20:10 UTC. Time now 2016-Feb-10 00:38 UTC.
Position N 28°31' W 087°30'.

Barometer 1022.2 mb
Water temperature 20.5 ° C

Date/timePositionNaut miles runAvg speedWind from/ knotsBaromVisibWave heightAir tempDewpointWater temp
2016-Feb-09 20:10N 28°31' W 087°30'4 1.0 1022.2 20.5
2016-Feb-09 16:10N 28°31' W 087°35'1 0.8 1026.3 20.6
2016-Feb-09 15:10N 28°32' W 087°36'1 0.7 1025.5 20.6
2016-Feb-09 14:10N 28°32' W 087°36'2 2.0 1023.6 20.6
2016-Feb-09 13:10N 28°33' W 087°38'3 1.0 1023.2 20.7
2016-Feb-09 10:10N 28°35' W 087°40'0 0.0 1019.2 20.7
2016-Feb-09 08:10N 28°35' W 087°40'7 1.4 1019.3 20.9
2016-Feb-09 03:10N 28°41' W 087°45'3 2.6 1017.9 20.7
2016-Feb-09 02:10N 28°43' W 087°47'3 1.7 1017.2 20.6
2016-Feb-09 00:10N 28°44' W 087°51'0 0.1 1015.8 20.7
2016-Feb-08 23:10N 28°44' W 087°51'2 2.3 1014.9 20.7
2016-Feb-08 22:10N 28°45' W 087°53'1 1.3 1015.4 20.7
2016-Feb-08 21:10N 28°44' W 087°55'5 1.0 1014.6 20.6
2016-Feb-08 16:10N 28°45' W 088°00'1 0.4 1020.1 20.6
2016-Feb-08 14:10N 28°45' W 088°01'2 2.3 1020.6 20.7
2016-Feb-08 13:10N 28°46' W 088°04'1 0.7 1020.1 20.7
2016-Feb-08 12:10N 28°46' W 088°04'0 0.0 1020.1 20.7
2016-Feb-08 11:10N 28°46' W 088°04'1 1.0 1019.7 20.7
2016-Feb-08 10:10N 28°46' W 088°05'1 1.5 1019.9 20.6
2016-Feb-08 09:10N 28°47' W 088°07'4 0.9 1019.9 20.4
2016-Feb-08 04:10N 28°49' W 088°11'1 0.6 1022.1 20.7
2016-Feb-08 03:10N 28°49' W 088°12'1 1.5 1022.1 20.7
2016-Feb-08 02:10N 28°49' W 088°14'1 1.2 1022.2 20.1
2016-Feb-08 01:10N 28°49' W 088°15'1 0.8 1021.7 20.4
2016-Feb-08 00:10N 28°49' W 088°16'1 1.2 1021.3 20.3
2016-Feb-07 23:10N 28°49' W 088°17'0 0.0 1021.0 20.3
2016-Feb-07 22:10N 28°49' W 088°17'0 0.1 1021.2 20.4
2016-Feb-07 20:10N 28°49' W 088°17'0 0.4 1022.1 20.3
2016-Feb-07 19:10N 28°49' W 088°17'0 0.0 1023.0 20.1
2016-Feb-07 18:10N 28°49' W 088°17'2 0.7 1023.9 20.1
2016-Feb-07 15:10N 28°51' W 088°17'2 0.7 1025.7 20.1
2016-Feb-07 12:10N 28°53' W 088°16'1 0.7 1024.5 20.4
2016-Feb-07 11:10N 28°54' W 088°16'1 1.3 1023.3 20.2
2016-Feb-07 10:10N 28°55' W 088°15'3 1.2 1023.1 20.2
2016-Feb-07 07:10N 28°58' W 088°14'2 2.4 1023.4 20.3
2016-Feb-07 06:10N 28°56' W 088°15'4 0.9 1023.8 20.2
2016-Feb-07 02:10N 28°60' W 088°14'3 1.0 1024.5 20.1
2016-Feb-06 23:10N 29°02' W 088°15'0 0.0 1023.4 20.0
2016-Feb-06 22:10N 29°02' W 088°15'1 0.7 1023.6 19.9
2016-Feb-06 21:10N 29°03' W 088°15'0 0.0 1023.8 19.6
2016-Feb-06 20:10N 29°03' W 088°15'1 0.5 1024.2 19.7
2016-Feb-06 18:10N 29°04' W 088°16'0 0.3 1025.5 19.4
2016-Feb-06 17:10N 29°03' W 088°16'0 0.2 1026.4 19.6
2016-Feb-06 15:10N 29°04' W 088°16'1 0.3 1027.1 19.9
2016-Feb-06 12:10N 29°04' W 088°15'1 1.1 1026.6 20.5
2016-Feb-06 11:10N 29°05' W 088°14'1 0.7 1026.2 20.4
2016-Feb-06 09:10N 29°05' W 088°13'1 1.4 1026.8 20.4
2016-Feb-06 08:10N 29°06' W 088°11'0 0.1 1027.0 20.4
2016-Feb-06 07:10N 29°07' W 088°12'5 1.2 1027.1 20.1
2016-Feb-06 03:10N 29°11' W 088°09'4 1.2 1027.3 19.4
2016-Feb-06 00:10N 29°14' W 088°08'0 0.0 1028.4 19.3
2016-Feb-05 23:10N 29°14' W 088°08'0 0.0 1028.8 19.1
2016-Feb-05 22:10N 29°14' W 088°08'1 0.6 1028.9 18.7
2016-Feb-05 20:10N 29°15' W 088°08'4 0.9 1029.0 18.2
2016-Feb-05 15:10N 29°18' W 088°05'7 1.2 1031.7 17.6
2016-Feb-05 09:10N 29°24' W 087°59'3 2.5 1028.7 17.3
2016-Feb-05 08:10N 29°26' W 087°57'6 1.2 1028.9 17.8
2016-Feb-05 03:10N 29°32' W 087°55'6 1.9 1027.8 18.3
2016-Feb-05 00:10N 29°37' W 087°56'0 0.0 1025.5 18.3
2016-Feb-04 23:10N 29°37' W 087°56'4 1.3 1024.3 17.6
2016-Feb-04 20:10N 29°41' W 087°57'0 0.0 1022.3 16.5
2016-Feb-04 19:10N 29°41' W 087°57'4 1.2 1022.7 16.5
2016-Feb-04 16:10N 29°44' W 087°56'1 1.2 1024.5 16.1
2016-Feb-04 15:10N 29°46' W 087°55'2 1.6 1023.9 16.1
2016-Feb-04 14:10N 29°47' W 087°55'3 2.6 1023.5 16.1
2016-Feb-04 13:10N 29°49' W 087°53'1 1.0 1022.5 16.1
2016-Feb-04 12:10N 29°50' W 087°53'17 1.2 1021.8 16.1
2016-Feb-03 21:10N 30°05' W 087°43'0 0.0 1014.9 16.5
2016-Feb-03 20:10N 30°05' W 087°43'7 1.1 1015.1 16.5
2016-Feb-03 14:10N 30°12' W 087°40'2 1.2 1013.1 17.2
2016-Feb-03 12:10N 30°14' W 087°39'1 0.5 1011.7 16.6
2016-Feb-03 11:10N 30°14' W 087°39'3 0.9 1011.0 17.1
2016-Feb-03 08:10N 30°12' W 087°38'0 0.0 1010.9 16.8
2016-Feb-03 07:10N 30°12' W 087°38'9 1.0 1011.2 16.4
2016-Feb-02 22:10N 30°04' W 087°32'7 1.1 1012.0 17.1
2016-Feb-02 15:10N 29°57' W 087°28'2 0.9 1014.7 17.6
2016-Feb-02 13:10N 29°56' W 087°27'2 2.0 1013.3 17.6
2016-Feb-02 12:10N 29°54' W 087°26'1 1.4 1012.9 17.4
2016-Feb-02 11:10N 29°53' W 087°25'3 1.4 1012.4 17.5
2016-Feb-02 09:10N 29°50' W 087°24'5 0.9 1012.5 18.3
2016-Feb-02 04:10N 29°47' W 087°20'0 0.0 1014.1 19.6
2016-Feb-02 03:10N 29°47' W 087°20'7 0.6 1013.9 20.0
2016-Feb-01 15:10N 29°48' W 087°13'1 0.4 1016.9 17.7
2016-Feb-01 11:10N 29°48' W 087°11'4 1.2 1015.0 16.7
2016-Feb-01 08:10N 29°46' W 087°07'0 0.0 1015.0 16.8
2016-Feb-01 07:10N 29°46' W 087°07'0 0.5 1015.2 16.7
2016-Feb-01 06:10N 29°46' W 087°07'4 1.2 1015.6 16.8
2016-Feb-01 03:10N 29°42' W 087°07'1 0.7 1015.8 16.8
2016-Feb-01 02:10N 29°41' W 087°07'3 3.2 1016.1 17.2
2016-Feb-01 01:10N 29°39' W 087°09'3 0.6 1016.0 17.2
2016-Jan-31 20:10N 29°36' W 087°11'2 1.0 1016.1 18.0
2016-Jan-31 18:10N 29°35' W 087°12'2 1.9 1017.1 18.4
2016-Jan-31 17:10N 29°33' W 087°13'1 1.1 1018.2 18.0
2016-Jan-31 16:10N 29°32' W 087°13'2 0.9 1018.6 18.0
2016-Jan-31 14:10N 29°30' W 087°14'3 1.3 1018.0 18.0
2016-Jan-31 12:10N 29°28' W 087°15'1 1.3 1017.3 20.2
2016-Jan-31 11:10N 29°27' W 087°15'1 1.1 1016.8 21.2
2016-Jan-31 10:10N 29°25' W 087°15'4 2.0 1016.9 21.4
2016-Jan-31 08:10N 29°21' W 087°15'5 1.1 1017.5 21.4
2016-Jan-31 03:10N 29°16' W 087°15'4 1.2 1019.5 21.4
2016-Jan-31 00:10N 29°12' W 087°14'3 2.6 1019.2 21.4
2016-Jan-30 23:10N 29°10' W 087°13'0 0.0 1019.2 21.4
2016-Jan-30 22:10N 29°10' W 087°13'2 1.0 1019.1 21.4
2016-Jan-30 20:10N 29°08' W 087°12'   1019.8 21.4

Dump ship's entire track history